sensor_id;sensor_type;location;lat;lon;timestamp;temperature;humidity
17370;DHT22;8802;52.402;4.920;2022-09-04T00:00:49;22.60;72.90
17370;DHT22;8802;52.402;4.920;2022-09-04T00:03:32;22.60;72.80
17370;DHT22;8802;52.402;4.920;2022-09-04T00:06:03;22.60;72.90
17370;DHT22;8802;52.402;4.920;2022-09-04T00:08:41;22.60;72.90
17370;DHT22;8802;52.402;4.920;2022-09-04T00:11:20;22.60;72.90
17370;DHT22;8802;52.402;4.920;2022-09-04T00:13:56;22.60;72.80
17370;DHT22;8802;52.402;4.920;2022-09-04T00:16:27;22.60;73.00
17370;DHT22;8802;52.402;4.920;2022-09-04T00:19:02;22.60;72.90
17370;DHT22;8802;52.402;4.920;2022-09-04T00:21:35;22.60;72.70
17370;DHT22;8802;52.402;4.920;2022-09-04T00:24:06;22.60;72.70
17370;DHT22;8802;52.402;4.920;2022-09-04T00:26:46;22.60;72.60
17370;DHT22;8802;52.402;4.920;2022-09-04T00:29:21;22.60;72.90
17370;DHT22;8802;52.402;4.920;2022-09-04T00:31:51;22.60;72.80
17370;DHT22;8802;52.402;4.920;2022-09-04T00:34:36;22.60;72.70
17370;DHT22;8802;52.402;4.920;2022-09-04T00:37:06;22.60;72.90
17370;DHT22;8802;52.402;4.920;2022-09-04T00:39:39;22.60;72.60
17370;DHT22;8802;52.402;4.920;2022-09-04T00:42:26;22.60;72.80
17370;DHT22;8802;52.402;4.920;2022-09-04T00:45:12;22.60;72.50
17370;DHT22;8802;52.402;4.920;2022-09-04T00:53:36;22.50;72.30
17370;DHT22;8802;52.402;4.920;2022-09-04T00:56:28;22.60;72.10
17370;DHT22;8802;52.402;4.920;2022-09-04T00:59:13;22.50;72.00
17370;DHT22;8802;52.402;4.920;2022-09-04T01:01:44;22.60;72.10
17370;DHT22;8802;52.402;4.920;2022-09-04T01:04:35;22.60;72.00
17370;DHT22;8802;52.402;4.920;2022-09-04T01:07:16;22.50;71.90
17370;DHT22;8802;52.402;4.920;2022-09-04T01:10:06;22.50;72.00
17370;DHT22;8802;52.402;4.920;2022-09-04T01:12:41;22.50;71.90
17370;DHT22;8802;52.402;4.920;2022-09-04T01:15:17;22.50;72.00
17370;DHT22;8802;52.402;4.920;2022-09-04T01:17:53;22.50;72.10
17370;DHT22;8802;52.402;4.920;2022-09-04T01:20:36;22.50;72.40
17370;DHT22;8802;52.402;4.920;2022-09-04T01:23:17;22.50;72.30
17370;DHT22;8802;52.402;4.920;2022-09-04T01:26:07;22.50;72.40
17370;DHT22;8802;52.402;4.920;2022-09-04T01:28:42;22.50;72.40
17370;DHT22;8802;52.402;4.920;2022-09-04T01:31:20;22.50;72.60
17370;DHT22;8802;52.402;4.920;2022-09-04T01:33:59;22.50;72.90
17370;DHT22;8802;52.402;4.920;2022-09-04T01:36:35;22.50;72.90
17370;DHT22;8802;52.402;4.920;2022-09-04T01:39:06;22.50;72.90
17370;DHT22;8802;52.402;4.920;2022-09-04T01:41:38;22.50;73.10
17370;DHT22;8802;52.402;4.920;2022-09-04T01:44:08;22.40;72.90
17370;DHT22;8802;52.402;4.920;2022-09-04T01:46:44;22.50;73.00
17370;DHT22;8802;52.402;4.920;2022-09-04T01:49:20;22.40;73.10
17370;DHT22;8802;52.402;4.920;2022-09-04T01:51:57;22.40;73.30
17370;DHT22;8802;52.402;4.920;2022-09-04T01:54:36;22.40;73.40
17370;DHT22;8802;52.402;4.920;2022-09-04T01:57:18;22.40;74.40
17370;DHT22;8802;52.402;4.920;2022-09-04T01:59:59;22.40;73.70
17370;DHT22;8802;52.402;4.920;2022-09-04T02:02:33;22.40;73.70
17370;DHT22;8802;52.402;4.920;2022-09-04T02:05:12;22.40;73.80
17370;DHT22;8802;52.402;4.920;2022-09-04T02:07:45;22.30;74.00
17370;DHT22;8802;52.402;4.920;2022-09-04T02:10:21;22.30;74.00
17370;DHT22;8802;52.402;4.920;2022-09-04T02:13:04;22.30;74.20
17370;DHT22;8802;52.402;4.920;2022-09-04T02:15:38;22.30;74.30
17370;DHT22;8802;52.402;4.920;2022-09-04T02:18:15;22.30;74.40
17370;DHT22;8802;52.402;4.920;2022-09-04T02:20:50;22.30;74.60
17370;DHT22;8802;52.402;4.920;2022-09-04T02:23:23;22.30;74.80
17370;DHT22;8802;52.402;4.920;2022-09-04T02:26:00;22.20;74.90
17370;DHT22;8802;52.402;4.920;2022-09-04T02:28:37;22.20;75.10
17370;DHT22;8802;52.402;4.920;2022-09-04T02:31:13;22.20;75.10
17370;DHT22;8802;52.402;4.920;2022-09-04T02:33:48;22.10;75.00
17370;DHT22;8802;52.402;4.920;2022-09-04T02:36:21;22.10;75.00
17370;DHT22;8802;52.402;4.920;2022-09-04T02:38:54;22.10;75.10
17370;DHT22;8802;52.402;4.920;2022-09-04T02:41:30;22.10;75.30
17370;DHT22;8802;52.402;4.920;2022-09-04T02:44:19;22.00;75.30
17370;DHT22;8802;52.402;4.920;2022-09-04T02:46:58;22.10;75.60
17370;DHT22;8802;52.402;4.920;2022-09-04T02:49:34;22.00;75.60
17370;DHT22;8802;52.402;4.920;2022-09-04T02:52:16;22.00;75.80
17370;DHT22;8802;52.402;4.920;2022-09-04T02:54:55;22.00;75.70
17370;DHT22;8802;52.402;4.920;2022-09-04T02:57:36;22.00;75.90
17370;DHT22;8802;52.402;4.920;2022-09-04T03:00:09;22.00;75.90
17370;DHT22;8802;52.402;4.920;2022-09-04T03:02:42;22.00;76.10
17370;DHT22;8802;52.402;4.920;2022-09-04T03:05:16;22.00;76.00
17370;DHT22;8802;52.402;4.920;2022-09-04T03:07:50;21.90;76.00
17370;DHT22;8802;52.402;4.920;2022-09-04T03:10:23;21.90;75.90
17370;DHT22;8802;52.402;4.920;2022-09-04T03:12:54;21.90;76.00
17370;DHT22;8802;52.402;4.920;2022-09-04T03:15:26;21.90;76.00
17370;DHT22;8802;52.402;4.920;2022-09-04T03:17:59;21.90;75.90
17370;DHT22;8802;52.402;4.920;2022-09-04T03:20:30;21.90;75.90
17370;DHT22;8802;52.402;4.920;2022-09-04T03:23:05;21.90;76.10
17370;DHT22;8802;52.402;4.920;2022-09-04T03:26:00;21.90;76.30
17370;DHT22;8802;52.402;4.920;2022-09-04T03:28:38;21.90;76.20
17370;DHT22;8802;52.402;4.920;2022-09-04T03:31:18;21.80;76.10
17370;DHT22;8802;52.402;4.920;2022-09-04T03:33:54;21.80;76.30
17370;DHT22;8802;52.402;4.920;2022-09-04T03:36:27;21.80;76.40
17370;DHT22;8802;52.402;4.920;2022-09-04T03:39:00;21.80;76.40
17370;DHT22;8802;52.402;4.920;2022-09-04T03:41:35;21.80;76.60
17370;DHT22;8802;52.402;4.920;2022-09-04T03:44:14;21.80;76.70
17370;DHT22;8802;52.402;4.920;2022-09-04T03:46:55;21.80;76.80
17370;DHT22;8802;52.402;4.920;2022-09-04T03:49:37;21.80;76.80
17370;DHT22;8802;52.402;4.920;2022-09-04T03:52:13;21.70;76.90
17370;DHT22;8802;52.402;4.920;2022-09-04T03:54:50;21.70;77.10
17370;DHT22;8802;52.402;4.920;2022-09-04T03:57:48;21.70;77.00
17370;DHT22;8802;52.402;4.920;2022-09-04T04:00:19;21.70;77.40
17370;DHT22;8802;52.402;4.920;2022-09-04T04:03:03;21.70;77.10
17370;DHT22;8802;52.402;4.920;2022-09-04T04:05:41;21.70;77.20
17370;DHT22;8802;52.402;4.920;2022-09-04T04:08:45;21.70;77.40
17370;DHT22;8802;52.402;4.920;2022-09-04T04:11:31;21.60;77.40
17370;DHT22;8802;52.402;4.920;2022-09-04T04:14:14;21.60;78.20
17370;DHT22;8802;52.402;4.920;2022-09-04T04:16:51;21.60;77.60
17370;DHT22;8802;52.402;4.920;2022-09-04T04:19:54;21.60;77.60
17370;DHT22;8802;52.402;4.920;2022-09-04T04:22:48;21.60;77.70
17370;DHT22;8802;52.402;4.920;2022-09-04T04:25:37;21.60;77.90
17370;DHT22;8802;52.402;4.920;2022-09-04T04:28:21;21.60;78.00
17370;DHT22;8802;52.402;4.920;2022-09-04T04:30:50;21.60;78.00
17370;DHT22;8802;52.402;4.920;2022-09-04T04:33:31;21.50;78.00
17370;DHT22;8802;52.402;4.920;2022-09-04T04:36:09;21.50;78.40
17370;DHT22;8802;52.402;4.920;2022-09-04T04:38:49;21.50;78.40
17370;DHT22;8802;52.402;4.920;2022-09-04T04:41:38;21.50;78.50
17370;DHT22;8802;52.402;4.920;2022-09-04T04:44:25;21.50;78.70
17370;DHT22;8802;52.402;4.920;2022-09-04T04:47:26;21.50;78.50
17370;DHT22;8802;52.402;4.920;2022-09-04T04:50:05;21.50;78.70
17370;DHT22;8802;52.402;4.920;2022-09-04T04:52:43;21.50;78.70
17370;DHT22;8802;52.402;4.920;2022-09-04T04:55:19;21.40;78.90
17370;DHT22;8802;52.402;4.920;2022-09-04T05:00:42;21.40;80.30
17370;DHT22;8802;52.402;4.920;2022-09-04T05:03:15;21.40;79.20
17370;DHT22;8802;52.402;4.920;2022-09-04T05:05:49;21.40;79.40
17370;DHT22;8802;52.402;4.920;2022-09-04T05:08:28;21.40;79.40
17370;DHT22;8802;52.402;4.920;2022-09-04T05:11:01;21.40;79.70
17370;DHT22;8802;52.402;4.920;2022-09-04T05:13:38;21.40;80.20
17370;DHT22;8802;52.402;4.920;2022-09-04T05:16:13;21.40;80.20
17370;DHT22;8802;52.402;4.920;2022-09-04T05:18:48;21.30;80.30
17370;DHT22;8802;52.402;4.920;2022-09-04T05:21:24;21.30;80.40
17370;DHT22;8802;52.402;4.920;2022-09-04T05:23:59;21.30;80.70
17370;DHT22;8802;52.402;4.920;2022-09-04T05:26:35;21.30;80.70
17370;DHT22;8802;52.402;4.920;2022-09-04T05:29:11;21.30;81.00
17370;DHT22;8802;52.402;4.920;2022-09-04T05:31:45;21.30;81.10
17370;DHT22;8802;52.402;4.920;2022-09-04T05:34:20;21.30;81.20
17370;DHT22;8802;52.402;4.920;2022-09-04T05:37:00;21.30;82.30
17370;DHT22;8802;52.402;4.920;2022-09-04T05:39:34;21.30;81.40
17370;DHT22;8802;52.402;4.920;2022-09-04T05:42:18;21.30;81.50
17370;DHT22;8802;52.402;4.920;2022-09-04T05:44:56;21.30;81.50
17370;DHT22;8802;52.402;4.920;2022-09-04T05:47:36;21.30;81.60
17370;DHT22;8802;52.402;4.920;2022-09-04T05:50:25;21.30;81.70
17370;DHT22;8802;52.402;4.920;2022-09-04T05:56:33;21.30;82.00
17370;DHT22;8802;52.402;4.920;2022-09-04T05:59:30;21.30;82.20
17370;DHT22;8802;52.402;4.920;2022-09-04T06:02:16;21.30;82.20
17370;DHT22;8802;52.402;4.920;2022-09-04T06:05:08;21.30;82.30
17370;DHT22;8802;52.402;4.920;2022-09-04T06:07:49;21.30;82.50
17370;DHT22;8802;52.402;4.920;2022-09-04T06:10:23;21.30;82.70
17370;DHT22;8802;52.402;4.920;2022-09-04T06:13:18;21.30;82.60
17370;DHT22;8802;52.402;4.920;2022-09-04T06:16:01;21.30;83.00
17370;DHT22;8802;52.402;4.920;2022-09-04T06:22:06;21.30;82.90
17370;DHT22;8802;52.402;4.920;2022-09-04T06:25:01;21.30;83.10
17370;DHT22;8802;52.402;4.920;2022-09-04T06:27:44;21.40;83.00
17370;DHT22;8802;52.402;4.920;2022-09-04T06:30:15;21.30;83.00
17370;DHT22;8802;52.402;4.920;2022-09-04T06:33:03;21.40;83.10
17370;DHT22;8802;52.402;4.920;2022-09-04T06:38:35;21.40;83.40
17370;DHT22;8802;52.402;4.920;2022-09-04T06:41:22;21.40;83.70
17370;DHT22;8802;52.402;4.920;2022-09-04T06:44:00;21.50;83.80
17370;DHT22;8802;52.402;4.920;2022-09-04T06:46:36;21.50;83.70
17370;DHT22;8802;52.402;4.920;2022-09-04T06:49:09;21.50;84.20
17370;DHT22;8802;52.402;4.920;2022-09-04T06:51:54;21.50;83.60
17370;DHT22;8802;52.402;4.920;2022-09-04T06:54:42;21.60;83.80
17370;DHT22;8802;52.402;4.920;2022-09-04T06:57:33;21.60;84.20
17370;DHT22;8802;52.402;4.920;2022-09-04T07:00:05;21.60;84.50
17370;DHT22;8802;52.402;4.920;2022-09-04T07:02:58;21.70;84.40
17370;DHT22;8802;52.402;4.920;2022-09-04T07:05:32;21.70;84.40
17370;DHT22;8802;52.402;4.920;2022-09-04T07:08:13;21.80;84.70
17370;DHT22;8802;52.402;4.920;2022-09-04T07:10:46;21.80;85.00
17370;DHT22;8802;52.402;4.920;2022-09-04T07:13:40;21.90;85.20
17370;DHT22;8802;52.402;4.920;2022-09-04T07:16:28;21.90;85.00
17370;DHT22;8802;52.402;4.920;2022-09-04T07:19:19;22.00;84.90
17370;DHT22;8802;52.402;4.920;2022-09-04T07:22:04;22.10;84.80
17370;DHT22;8802;52.402;4.920;2022-09-04T07:24:43;22.20;84.50
17370;DHT22;8802;52.402;4.920;2022-09-04T07:27:16;22.20;84.30
17370;DHT22;8802;52.402;4.920;2022-09-04T07:29:50;22.20;84.30
17370;DHT22;8802;52.402;4.920;2022-09-04T07:32:22;22.30;84.50
17370;DHT22;8802;52.402;4.920;2022-09-04T07:34:58;22.40;84.20
17370;DHT22;8802;52.402;4.920;2022-09-04T07:37:32;22.40;84.30
17370;DHT22;8802;52.402;4.920;2022-09-04T07:40:08;22.50;84.20
17370;DHT22;8802;52.402;4.920;2022-09-04T07:42:41;22.60;84.10
17370;DHT22;8802;52.402;4.920;2022-09-04T07:45:22;22.60;83.80
17370;DHT22;8802;52.402;4.920;2022-09-04T07:48:07;22.70;84.00
17370;DHT22;8802;52.402;4.920;2022-09-04T07:50:48;22.70;84.10
17370;DHT22;8802;52.402;4.920;2022-09-04T07:53:25;22.80;84.00
17370;DHT22;8802;52.402;4.920;2022-09-04T07:55:56;22.90;83.80
17370;DHT22;8802;52.402;4.920;2022-09-04T07:58:39;23.00;83.70
17370;DHT22;8802;52.402;4.920;2022-09-04T08:01:32;23.00;83.50
17370;DHT22;8802;52.402;4.920;2022-09-04T08:04:22;23.10;83.40
17370;DHT22;8802;52.402;4.920;2022-09-04T08:06:56;23.20;83.20
17370;DHT22;8802;52.402;4.920;2022-09-04T08:09:49;23.30;83.20
17370;DHT22;8802;52.402;4.920;2022-09-04T08:15:28;23.40;83.10
17370;DHT22;8802;52.402;4.920;2022-09-04T08:18:13;23.50;82.90
17370;DHT22;8802;52.402;4.920;2022-09-04T08:20:44;23.60;83.10
17370;DHT22;8802;52.402;4.920;2022-09-04T08:23:42;23.70;83.00
17370;DHT22;8802;52.402;4.920;2022-09-04T08:26:18;23.70;82.70
17370;DHT22;8802;52.402;4.920;2022-09-04T08:28:59;23.80;82.70
17370;DHT22;8802;52.402;4.920;2022-09-04T08:31:30;23.90;82.70
17370;DHT22;8802;52.402;4.920;2022-09-04T08:37:09;24.00;82.40
17370;DHT22;8802;52.402;4.920;2022-09-04T08:39:47;24.10;82.20
17370;DHT22;8802;52.402;4.920;2022-09-04T08:45:28;24.30;81.80
17370;DHT22;8802;52.402;4.920;2022-09-04T08:48:25;24.30;81.90
17370;DHT22;8802;52.402;4.920;2022-09-04T08:51:22;24.40;82.00
17370;DHT22;8802;52.402;4.920;2022-09-04T08:54:35;24.40;81.80
17370;DHT22;8802;52.402;4.920;2022-09-04T08:57:22;24.50;81.50
17370;DHT22;8802;52.402;4.920;2022-09-04T09:00:05;24.60;81.30
17370;DHT22;8802;52.402;4.920;2022-09-04T09:03:01;24.70;81.30
17370;DHT22;8802;52.402;4.920;2022-09-04T09:09:26;24.80;80.90
17370;DHT22;8802;52.402;4.920;2022-09-04T09:12:26;24.90;80.90
17370;DHT22;8802;52.402;4.920;2022-09-04T09:15:32;25.00;80.60
17370;DHT22;8802;52.402;4.920;2022-09-04T09:21:08;25.20;80.40
17370;DHT22;8802;52.402;4.920;2022-09-04T09:23:50;25.20;80.20
17370;DHT22;8802;52.402;4.920;2022-09-04T09:26:26;25.30;80.00
17370;DHT22;8802;52.402;4.920;2022-09-04T09:29:18;25.40;80.20
17370;DHT22;8802;52.402;4.920;2022-09-04T09:38:30;25.70;79.90
17370;DHT22;8802;52.402;4.920;2022-09-04T09:41:35;25.70;79.50
17370;DHT22;8802;52.402;4.920;2022-09-04T09:53:43;26.00;78.90
17370;DHT22;8802;52.402;4.920;2022-09-04T09:59:51;26.10;78.50
17370;DHT22;8802;52.402;4.920;2022-09-04T10:02:59;26.20;78.80
17370;DHT22;8802;52.402;4.920;2022-09-04T10:06:05;26.30;78.70
17370;DHT22;8802;52.402;4.920;2022-09-04T10:08:50;26.40;78.30
17370;DHT22;8802;52.402;4.920;2022-09-04T10:11:52;26.40;78.00
17370;DHT22;8802;52.402;4.920;2022-09-04T10:15:01;26.50;78.50
17370;DHT22;8802;52.402;4.920;2022-09-04T10:18:05;26.60;77.70
17370;DHT22;8802;52.402;4.920;2022-09-04T10:21:05;26.70;77.60
17370;DHT22;8802;52.402;4.920;2022-09-04T10:24:08;26.80;77.60
17370;DHT22;8802;52.402;4.920;2022-09-04T10:27:14;26.90;76.60
17370;DHT22;8802;52.402;4.920;2022-09-04T10:30:03;27.00;76.40
17370;DHT22;8802;52.402;4.920;2022-09-04T10:32:47;27.10;76.00
17370;DHT22;8802;52.402;4.920;2022-09-04T10:35:21;27.20;75.70
17370;DHT22;8802;52.402;4.920;2022-09-04T10:38:03;27.30;75.60
17370;DHT22;8802;52.402;4.920;2022-09-04T10:40:44;27.50;75.00
17370;DHT22;8802;52.402;4.920;2022-09-04T10:43:24;27.60;74.90
17370;DHT22;8802;52.402;4.920;2022-09-04T10:45:59;27.70;74.60
17370;DHT22;8802;52.402;4.920;2022-09-04T10:51:55;27.90;74.20
17370;DHT22;8802;52.402;4.920;2022-09-04T10:54:55;28.10;74.00
17370;DHT22;8802;52.402;4.920;2022-09-04T10:57:40;28.20;73.80
17370;DHT22;8802;52.402;4.920;2022-09-04T11:00:12;28.30;73.60
17370;DHT22;8802;52.402;4.920;2022-09-04T11:05:56;28.50;72.20
17370;DHT22;8802;52.402;4.920;2022-09-04T11:08:49;28.60;72.10
17370;DHT22;8802;52.402;4.920;2022-09-04T11:11:32;28.70;72.10
17370;DHT22;8802;52.402;4.920;2022-09-04T11:14:26;28.80;70.80
17370;DHT22;8802;52.402;4.920;2022-09-04T11:26:50;29.30;69.10
17370;DHT22;8802;52.402;4.920;2022-09-04T11:29:56;29.40;70.60
17370;DHT22;8802;52.402;4.920;2022-09-04T11:32:50;29.50;68.70
17370;DHT22;8802;52.402;4.920;2022-09-04T11:36:04;29.60;68.40
17370;DHT22;8802;52.402;4.920;2022-09-04T11:41:54;29.80;66.90
17370;DHT22;8802;52.402;4.920;2022-09-04T11:50:50;30.10;65.10
17370;DHT22;8802;52.402;4.920;2022-09-04T11:56:49;30.20;65.00
17370;DHT22;8802;52.402;4.920;2022-09-04T12:02:49;30.40;63.60
17370;DHT22;8802;52.402;4.920;2022-09-04T12:05:34;30.50;64.00
17370;DHT22;8802;52.402;4.920;2022-09-04T12:08:24;30.50;63.10
17370;DHT22;8802;52.402;4.920;2022-09-04T12:11:06;30.60;63.10
17370;DHT22;8802;52.402;4.920;2022-09-04T12:14:10;30.60;63.10
17370;DHT22;8802;52.402;4.920;2022-09-04T12:20:02;30.80;62.50
17370;DHT22;8802;52.402;4.920;2022-09-04T12:22:57;30.90;61.90
17370;DHT22;8802;52.402;4.920;2022-09-04T12:25:55;31.00;62.90
17370;DHT22;8802;52.402;4.920;2022-09-04T12:31:53;31.10;62.60
17370;DHT22;8802;52.402;4.920;2022-09-04T12:34:42;31.20;61.00
17370;DHT22;8802;52.402;4.920;2022-09-04T12:37:34;31.30;60.30
17370;DHT22;8802;52.402;4.920;2022-09-04T12:40:28;31.30;59.90
17370;DHT22;8802;52.402;4.920;2022-09-04T12:43:04;31.30;59.80
17370;DHT22;8802;52.402;4.920;2022-09-04T12:45:44;31.30;59.20
17370;DHT22;8802;52.402;4.920;2022-09-04T12:48:23;31.30;59.90
17370;DHT22;8802;52.402;4.920;2022-09-04T12:50:58;31.30;60.10
17370;DHT22;8802;52.402;4.920;2022-09-04T12:56:20;31.20;59.80
17370;DHT22;8802;52.402;4.920;2022-09-04T12:59:01;31.20;59.80
17370;DHT22;8802;52.402;4.920;2022-09-04T13:01:37;31.30;60.00
17370;DHT22;8802;52.402;4.920;2022-09-04T13:04:16;31.30;59.50
17370;DHT22;8802;52.402;4.920;2022-09-04T13:06:55;31.20;60.00
17370;DHT22;8802;52.402;4.920;2022-09-04T13:09:37;31.20;60.00
17370;DHT22;8802;52.402;4.920;2022-09-04T13:12:16;31.20;60.40
17370;DHT22;8802;52.402;4.920;2022-09-04T13:15:07;31.20;60.00
17370;DHT22;8802;52.402;4.920;2022-09-04T13:17:43;31.10;60.40
17370;DHT22;8802;52.402;4.920;2022-09-04T13:20:21;31.10;60.90
17370;DHT22;8802;52.402;4.920;2022-09-04T13:23:06;31.00;59.80
17370;DHT22;8802;52.402;4.920;2022-09-04T13:25:47;30.90;59.80
17370;DHT22;8802;52.402;4.920;2022-09-04T13:28:26;30.90;59.70
17370;DHT22;8802;52.402;4.920;2022-09-04T13:31:18;30.90;59.80
17370;DHT22;8802;52.402;4.920;2022-09-04T13:33:57;30.80;59.00
17370;DHT22;8802;52.402;4.920;2022-09-04T13:36:34;30.80;58.80
17370;DHT22;8802;52.402;4.920;2022-09-04T13:39:26;30.80;59.40
17370;DHT22;8802;52.402;4.920;2022-09-04T13:42:26;30.80;59.00
17370;DHT22;8802;52.402;4.920;2022-09-04T13:45:07;30.80;59.00
17370;DHT22;8802;52.402;4.920;2022-09-04T13:47:45;30.80;59.00
17370;DHT22;8802;52.402;4.920;2022-09-04T13:50:20;30.70;58.60
17370;DHT22;8802;52.402;4.920;2022-09-04T13:52:52;30.70;59.00
17370;DHT22;8802;52.402;4.920;2022-09-04T13:55:24;30.70;58.90
17370;DHT22;8802;52.402;4.920;2022-09-04T13:57:58;30.70;58.90
17370;DHT22;8802;52.402;4.920;2022-09-04T14:00:29;30.70;58.90
17370;DHT22;8802;52.402;4.920;2022-09-04T14:03:01;30.60;58.30
17370;DHT22;8802;52.402;4.920;2022-09-04T14:05:32;30.60;58.30
17370;DHT22;8802;52.402;4.920;2022-09-04T14:08:05;30.60;58.30
17370;DHT22;8802;52.402;4.920;2022-09-04T14:11:08;30.60;58.20
17370;DHT22;8802;52.402;4.920;2022-09-04T14:13:48;30.50;58.40
17370;DHT22;8802;52.402;4.920;2022-09-04T14:16:20;30.50;58.90
17370;DHT22;8802;52.402;4.920;2022-09-04T14:18:55;30.50;59.50
17370;DHT22;8802;52.402;4.920;2022-09-04T14:21:50;30.50;59.90
17370;DHT22;8802;52.402;4.920;2022-09-04T14:24:27;30.40;60.30
17370;DHT22;8802;52.402;4.920;2022-09-04T14:27:02;30.40;60.10
17370;DHT22;8802;52.402;4.920;2022-09-04T14:29:37;30.40;60.60
17370;DHT22;8802;52.402;4.920;2022-09-04T14:32:17;30.30;60.40
17370;DHT22;8802;52.402;4.920;2022-09-04T14:34:56;30.30;60.70
17370;DHT22;8802;52.402;4.920;2022-09-04T14:37:45;30.30;60.90
17370;DHT22;8802;52.402;4.920;2022-09-04T14:40:18;30.30;60.40
17370;DHT22;8802;52.402;4.920;2022-09-04T14:42:48;30.20;61.70
17370;DHT22;8802;52.402;4.920;2022-09-04T14:45:29;30.20;60.90
17370;DHT22;8802;52.402;4.920;2022-09-04T14:48:00;30.20;61.50
17370;DHT22;8802;52.402;4.920;2022-09-04T14:50:30;30.10;61.50
17370;DHT22;8802;52.402;4.920;2022-09-04T14:53:00;30.10;61.20
17370;DHT22;8802;52.402;4.920;2022-09-04T14:55:32;30.00;61.10
17370;DHT22;8802;52.402;4.920;2022-09-04T14:58:04;30.00;60.70
17370;DHT22;8802;52.402;4.920;2022-09-04T15:00:52;30.00;60.40
17370;DHT22;8802;52.402;4.920;2022-09-04T15:03:24;29.90;60.40
17370;DHT22;8802;52.402;4.920;2022-09-04T15:05:56;30.00;60.70
17370;DHT22;8802;52.402;4.920;2022-09-04T15:08:27;29.90;60.20
17370;DHT22;8802;52.402;4.920;2022-09-04T15:10:59;29.90;60.00
17370;DHT22;8802;52.402;4.920;2022-09-04T15:13:36;29.90;60.00
17370;DHT22;8802;52.402;4.920;2022-09-04T15:16:15;29.80;59.60
17370;DHT22;8802;52.402;4.920;2022-09-04T15:18:50;29.80;59.40
17370;DHT22;8802;52.402;4.920;2022-09-04T15:21:23;29.80;59.30
17370;DHT22;8802;52.402;4.920;2022-09-04T15:23:59;29.80;59.20
17370;DHT22;8802;52.402;4.920;2022-09-04T15:26:35;29.80;59.20
17370;DHT22;8802;52.402;4.920;2022-09-04T15:29:07;29.80;59.20
17370;DHT22;8802;52.402;4.920;2022-09-04T15:31:39;29.80;59.70
17370;DHT22;8802;52.402;4.920;2022-09-04T15:34:17;29.80;59.80
17370;DHT22;8802;52.402;4.920;2022-09-04T15:36:45;29.80;60.00
17370;DHT22;8802;52.402;4.920;2022-09-04T15:39:25;29.80;60.00
17370;DHT22;8802;52.402;4.920;2022-09-04T15:41:55;29.70;59.90
17370;DHT22;8802;52.402;4.920;2022-09-04T15:44:25;29.70;59.90
17370;DHT22;8802;52.402;4.920;2022-09-04T15:46:59;29.80;59.80
17370;DHT22;8802;52.402;4.920;2022-09-04T15:49:39;29.70;59.50
17370;DHT22;8802;52.402;4.920;2022-09-04T15:52:17;29.70;59.90
17370;DHT22;8802;52.402;4.920;2022-09-04T15:55:03;29.70;59.60
17370;DHT22;8802;52.402;4.920;2022-09-04T15:57:43;29.60;59.60
17370;DHT22;8802;52.402;4.920;2022-09-04T16:00:13;29.60;59.90
17370;DHT22;8802;52.402;4.920;2022-09-04T16:02:48;29.60;60.10
17370;DHT22;8802;52.402;4.920;2022-09-04T16:05:23;29.50;60.20
17370;DHT22;8802;52.402;4.920;2022-09-04T16:07:57;29.50;60.40
17370;DHT22;8802;52.402;4.920;2022-09-04T16:10:45;29.40;61.60
17370;DHT22;8802;52.402;4.920;2022-09-04T16:13:39;29.40;62.30
17370;DHT22;8802;52.402;4.920;2022-09-04T16:16:15;29.40;62.30
17370;DHT22;8802;52.402;4.920;2022-09-04T16:18:50;29.40;62.70
17370;DHT22;8802;52.402;4.920;2022-09-04T16:21:23;29.30;63.00
17370;DHT22;8802;52.402;4.920;2022-09-04T16:23:54;29.30;63.40
17370;DHT22;8802;52.402;4.920;2022-09-04T16:26:28;29.20;63.80
17370;DHT22;8802;52.402;4.920;2022-09-04T16:29:03;29.10;63.80
17370;DHT22;8802;52.402;4.920;2022-09-04T16:31:33;29.10;63.90
17370;DHT22;8802;52.402;4.920;2022-09-04T16:34:04;29.00;63.80
17370;DHT22;8802;52.402;4.920;2022-09-04T16:36:37;29.00;64.20
17370;DHT22;8802;52.402;4.920;2022-09-04T16:39:18;28.90;64.40
17370;DHT22;8802;52.402;4.920;2022-09-04T16:41:51;28.90;64.90
17370;DHT22;8802;52.402;4.920;2022-09-04T16:44:25;28.80;64.80
17370;DHT22;8802;52.402;4.920;2022-09-04T16:46:58;28.70;65.00
17370;DHT22;8802;52.402;4.920;2022-09-04T16:49:42;28.50;65.40
17370;DHT22;8802;52.402;4.920;2022-09-04T16:52:35;28.60;65.80
17370;DHT22;8802;52.402;4.920;2022-09-04T16:55:12;28.60;65.80
17370;DHT22;8802;52.402;4.920;2022-09-04T16:57:44;28.60;65.80
17370;DHT22;8802;52.402;4.920;2022-09-04T17:00:16;28.50;65.80
17370;DHT22;8802;52.402;4.920;2022-09-04T17:02:51;28.50;66.00
17370;DHT22;8802;52.402;4.920;2022-09-04T17:05:25;28.40;66.30
17370;DHT22;8802;52.402;4.920;2022-09-04T17:08:00;28.40;67.00
17370;DHT22;8802;52.402;4.920;2022-09-04T17:10:36;28.40;67.30
17370;DHT22;8802;52.402;4.920;2022-09-04T17:13:09;28.40;67.60
17370;DHT22;8802;52.402;4.920;2022-09-04T17:15:46;28.30;67.50
17370;DHT22;8802;52.402;4.920;2022-09-04T17:18:19;28.30;67.60
17370;DHT22;8802;52.402;4.920;2022-09-04T17:20:55;28.20;67.50
17370;DHT22;8802;52.402;4.920;2022-09-04T17:23:27;28.20;67.50
17370;DHT22;8802;52.402;4.920;2022-09-04T17:26:00;28.10;67.60
17370;DHT22;8802;52.402;4.920;2022-09-04T17:28:40;28.10;67.90
17370;DHT22;8802;52.402;4.920;2022-09-04T17:31:17;28.00;68.00
17370;DHT22;8802;52.402;4.920;2022-09-04T17:33:53;28.00;68.10
17370;DHT22;8802;52.402;4.920;2022-09-04T17:36:28;28.00;68.30
17370;DHT22;8802;52.402;4.920;2022-09-04T17:39:04;27.90;68.00
17370;DHT22;8802;52.402;4.920;2022-09-04T17:41:41;27.90;68.00
17370;DHT22;8802;52.402;4.920;2022-09-04T17:44:32;27.80;68.20
17370;DHT22;8802;52.402;4.920;2022-09-04T17:47:14;27.80;68.20
17370;DHT22;8802;52.402;4.920;2022-09-04T17:49:45;27.70;68.50
17370;DHT22;8802;52.402;4.920;2022-09-04T17:52:21;27.60;68.40
17370;DHT22;8802;52.402;4.920;2022-09-04T17:54:49;27.60;68.80
17370;DHT22;8802;52.402;4.920;2022-09-04T17:57:26;27.60;68.90
17370;DHT22;8802;52.402;4.920;2022-09-04T18:00:02;27.50;69.40
17370;DHT22;8802;52.402;4.920;2022-09-04T18:02:38;27.50;69.90
17370;DHT22;8802;52.402;4.920;2022-09-04T18:05:14;27.40;69.80
17370;DHT22;8802;52.402;4.920;2022-09-04T18:07:47;27.40;69.60
17370;DHT22;8802;52.402;4.920;2022-09-04T18:10:22;27.40;69.90
17370;DHT22;8802;52.402;4.920;2022-09-04T18:13:00;27.30;70.10
17370;DHT22;8802;52.402;4.920;2022-09-04T18:15:41;27.20;70.20
17370;DHT22;8802;52.402;4.920;2022-09-04T18:18:17;27.20;70.40
17370;DHT22;8802;52.402;4.920;2022-09-04T18:20:47;27.20;70.50
17370;DHT22;8802;52.402;4.920;2022-09-04T18:23:27;27.10;70.50
17370;DHT22;8802;52.402;4.920;2022-09-04T18:26:01;27.10;70.70
17370;DHT22;8802;52.402;4.920;2022-09-04T18:28:36;27.10;71.00
17370;DHT22;8802;52.402;4.920;2022-09-04T18:31:09;27.00;71.10
17370;DHT22;8802;52.402;4.920;2022-09-04T18:33:53;27.00;71.10
17370;DHT22;8802;52.402;4.920;2022-09-04T18:36:25;27.00;70.90
17370;DHT22;8802;52.402;4.920;2022-09-04T18:38:59;26.90;70.90
17370;DHT22;8802;52.402;4.920;2022-09-04T18:41:30;26.80;70.70